Grass Valley, OR

5:02 PM PST on February 28, 2015 (GMT -0800)
1 Mile South of Downtown | Change Station
CLOSE
Current Station
Personal Weather Station
Location: Grass Valley, OR
Elevation: 2398 ft
Nearby Weather Stations

Elev 2398 ft 45.33 °N, 120.79 °W | Updated 14 seconds ago

Clear
Clear
39.9 °F
Feels Like 32 °F
N
15.0
Wind Variable Wind from ENE
Gusts 16.0 mph

Today
High -- | Low -- °F
--% Chance of Precip.
Yesterday
High -- | Low -- °F
Precip. -- in
6:43 AM 5:48 PM
Waxing Gibbous, 81% visible
Pressure 30.14 in
Visibility 10.0 miles
Clouds Clear
Windchill 32 °F
Dew Point 22 °F
Humidity 48%
Rainfall 0.00 in
Snow Depth Not available.
UV 0 out of 12
Pollen 8.10 out of 12
Air Quality Not available.
Flu Activity Not available.
METAR KRDM 010056Z 02011KT 10SM CLR 03/M09 A3009 RMK AO2 SLP206 T00331089

More Conditions Fewer Conditions

Pressure 30.14 in
Visibility 10.0 miles
Clouds Clear
Windchill 32 °F
Dew Point 22 °F
Humidity 48%
Rainfall 0.00 in
Snow Depth Not available.
UV 0 out of 12
Pollen 8.10 out of 12
Air Quality Not available.
Flu Activity Not available.
METAR KRDM 010056Z 02011KT 10SM CLR 03/M09 A3009 RMK AO2 SLP206 T00331089

More Conditions Fewer Conditions

10-Day Weather Forecast

Almanac

Astronomy

Feb. 28, 2015 Rise Set
Actual Time
Civil Twilight
Nautical Twilight
Astronomical Twilight
Moon
Length of Visible Light
Length of Day
Tomorrow will be .
, % of the Moon is Illuminated

Today's Extremes

State Highs State Lows

Community

WunderPhotos

Upload Photos

1,801,217 photos uploaded!

WunderBlogs® & News

Nearby

Air Quality

  Air Quality AQ Index Pollutant
Not available.

Snow Depth

Station Depth Elevation

Earthquake Activity

City Distance Mag. Time & Date
Minimum magnitude displayed is 2.5.

Coastal Water Temperatures

Place Temperature

Nearby Weather Stations